Estación Meteorológica Peña el Pijo (Robertgarden) [ 05/21/19 05:16:42 CEST ]

Fecha Hora Presion(HPa) Temp (°C) Humedad % Rocio (°C) Viento ( m/s) Direccion Lluvia 1Hora(mm) Lluvia 24H(mm) LLuvia Total(mm)
2018-Dec-11 01:02:01 1014.700 1.4 69 -3.7         154.88
2018-Dec-11 02:05:07 1014.100 1.3 71 -3.4         154.88
2018-Dec-11 03:02:17 1013.700 0.5 71 -4.2         154.88
2018-Dec-11 04:02:02 1013.300 -0.4 73 -4.7         154.88
2018-Dec-11 05:02:18 1013.100 -0.8 75 -4.7         154.88
2018-Dec-11 06:05:10 1012.600 0.7 76 -3.1         154.88
2018-Dec-11 07:01:39 1012.400 -0.2 76 -3.9         154.88
2018-Dec-11 08:01:52 1012.200 -0.8 78 -4.2         154.88
2018-Dec-11 09:01:39 1012.300 -0.2 79 -3.4         154.88
2018-Dec-11 10:01:32 1012.300 7.5 82 4.6         154.88
2018-Dec-11 11:01:43 1012.500 15.8 60 8.1         154.88
2018-Dec-11 12:01:55 1012.200 17.9 43 5.1         154.88
2018-Dec-11 13:01:41 1011.500 18.3 39 4.1         154.88
2018-Dec-11 14:01:51 1010.900 19.3 36 3.8         154.88
2018-Dec-11 15:01:50 1010.300 19.3 36 3.8 3.0 N     154.88
2018-Dec-11 16:01:30 1010.400 17.6 38 3.0 0.6 NNW     154.88
2018-Dec-11 17:01:39 1010.700 14.6 44 2.4         154.88
2018-Dec-11 18:01:37 1011.200 10.9 51 1.2         154.88
2018-Dec-11 19:01:32 1011.500 8.8 60 1.5         154.88
2018-Dec-11 20:01:54 1011.900 7.2 64 0.8         154.88
2018-Dec-11 21:01:25 1011.900 7.3 68 1.8         154.88
2018-Dec-11 22:01:38 1011.900 6.6 70 1.5         154.88
2018-Dec-11 23:01:43 1012.100 6.1 72 1.4         154.88

Temperatura Máxima:19°    Temperatura Mínima:
Presión Máxima:1014.700 Hpa    Presión Mínima:1010.300 Hpa


Volver